Time;durP1;ratioP1;P1;durP2;ratioP2;P2;SDS_P1;SDS_P2;PMS_P1;PMS_P2;Temp;Humidity;BMP_temperature;BMP_pressure;BME280_temperature;BME280_humidity;BME280_pressure;Samples;Min_cycle;Max_cycle;Signal;HPM_P1;HPM_P2
2021/04/05 00:00:39;;;;;;;95.80;20.58;;;6.90;99.90;;;;;;5011397;28;20030;-81
2021/04/05 00:03:04;;;;;;;114.28;21.60;;;6.80;99.90;;;;;;5010224;28;20495;-82
2021/04/05 00:05:37;;;;;;;98.82;22.17;;;6.80;99.90;;;;;;5009710;28;20022;-82
2021/04/05 00:08:04;;;;;;;117.40;24.20;;;6.80;99.90;;;;;;5010211;28;20026;-81
2021/04/05 00:10:41;;;;;;;121.30;21.40;;;6.80;99.90;;;;;;5011252;28;20088;-82
2021/04/05 00:13:12;;;;;;;113.47;21.35;;;6.80;99.90;;;;;;5010242;28;20065;-81
2021/04/05 00:15:37;;;;;;;100.93;19.45;;;6.90;99.90;;;;;;5010647;28;20026;-82
2021/04/05 00:18:03;;;;;;;113.72;23.45;;;6.80;99.90;;;;;;5010194;28;20397;-81
2021/04/05 00:20:44;;;;;;;113.57;22.88;;;6.80;99.90;;;;;;5009975;28;20026;-81
2021/04/05 00:23:09;;;;;;;120.25;21.65;;;6.80;99.90;;;;;;5011098;28;20041;-82
2021/04/05 00:25:35;;;;;;;99.18;21.63;;;6.80;99.90;;;;;;5009460;28;20030;-82
2021/04/05 00:28:01;;;;;;;116.05;21.00;;;6.80;99.90;;;;;;5011316;28;20038;-81
2021/04/05 00:30:31;;;;;;;124.03;20.48;;;6.80;99.90;;;;;;5010856;28;20030;-81
2021/04/05 00:32:56;;;;;;;116.53;18.05;;;6.90;99.90;;;;;;5011263;28;20062;-81
2021/04/05 00:35:26;;;;;;;80.32;17.88;;;6.90;99.90;;;;;;5009447;28;20081;-83
2021/04/05 00:37:53;;;;;;;97.50;18.42;;;6.90;99.90;;;;;;5012187;28;20021;-82
2021/04/05 00:40:23;;;;;;;93.20;19.08;;;6.90;99.90;;;;;;5014673;28;20050;-81
2021/04/05 00:42:49;;;;;;;97.97;17.50;;;6.90;99.90;;;;;;5014576;28;20022;-82
2021/04/05 00:45:17;;;;;;;109.97;19.73;;;6.90;99.90;;;;;;5013975;28;20517;-82
2021/04/05 00:47:44;;;;;;;109.05;17.08;;;7.00;99.90;;;;;;5014536;28;20026;-81
2021/04/05 00:50:12;;;;;;;75.55;15.90;;;7.00;99.90;;;;;;5014560;28;20037;-82
2021/04/05 00:52:38;;;;;;;91.03;18.27;;;7.00;99.90;;;;;;5014609;28;20030;-82
2021/04/05 00:55:07;;;;;;;92.38;16.15;;;6.90;99.90;;;;;;5012827;28;20072;-81
2021/04/05 00:57:37;;;;;;;90.07;17.90;;;6.90;99.90;;;;;;5014237;28;20382;-82
2021/04/05 01:00:12;;;;;;;101.72;19.10;;;6.80;99.90;;;;;;5014013;28;20057;-81
2021/04/05 01:02:38;;;;;;;100.15;17.30;;;6.70;99.90;;;;;;5013227;28;20084;-81
2021/04/05 01:05:04;;;;;;;97.55;17.50;;;6.60;99.90;;;;;;5013656;28;20513;-81
2021/04/05 01:07:30;;;;;;;84.65;17.60;;;6.50;99.90;;;;;;5014442;28;20065;-81
2021/04/05 01:09:56;;;;;;;88.70;15.30;;;6.50;99.90;;;;;;5013901;28;20482;-80
2021/04/05 01:12:21;;;;;;;97.20;18.88;;;6.50;99.90;;;;;;5014350;28;20048;-80
2021/04/05 01:14:47;;;;;;;98.95;17.17;;;6.50;99.90;;;;;;5011863;28;20033;-80
2021/04/05 01:17:12;;;;;;;96.55;20.20;;;6.40;99.90;;;;;;5013009;28;20113;-81
2021/04/05 01:19:38;;;;;;;98.97;17.52;;;6.40;99.90;;;;;;5014076;28;20026;-80
2021/04/05 01:22:04;;;;;;;73.53;14.50;;;6.40;99.90;;;;;;5013408;28;20033;-80
2021/04/05 01:24:29;;;;;;;96.28;17.10;;;6.40;99.90;;;;;;5013400;28;20435;-80
2021/04/05 01:26:55;;;;;;;72.20;16.00;;;6.40;99.90;;;;;;5014119;28;20033;-81
2021/04/05 01:29:20;;;;;;;70.70;14.50;;;6.40;99.90;;;;;;5013527;28;20041;-81
2021/04/05 01:31:47;;;;;;;35.63;8.18;;;6.30;99.90;;;;;;5013972;28;20057;-80
2021/04/05 01:34:12;;;;;;;33.40;5.80;;;6.20;99.90;;;;;;5013358;28;20080;-81
2021/04/05 01:36:38;;;;;;;23.05;3.28;;;5.70;99.90;;;;;;5013514;28;20026;-81
2021/04/05 01:39:03;;;;;;;21.83;4.18;;;5.30;99.90;;;;;;5013699;28;20022;-81
2021/04/05 01:41:30;;;;;;;18.88;3.47;;;5.20;99.90;;;;;;5013621;28;20449;-82
2021/04/05 01:43:56;;;;;;;27.63;4.30;;;5.20;99.90;;;;;;5012973;28;20022;-81
2021/04/05 01:46:23;;;;;;;28.73;4.20;;;5.10;99.90;;;;;;5013404;28;20068;-81
2021/04/05 01:48:49;;;;;;;21.08;3.65;;;5.10;99.90;;;;;;5012213;28;20520;-81
2021/04/05 01:51:23;;;;;;;14.65;3.25;;;5.10;99.90;;;;;;5012461;28;20030;-81
2021/04/05 01:53:50;;;;;;;13.20;2.40;;;4.90;99.90;;;;;;5013017;28;20408;-81
2021/04/05 01:56:17;;;;;;;23.45;3.08;;;4.90;99.90;;;;;;5013631;28;20029;-81
2021/04/05 01:58:49;;;;;;;15.82;2.47;;;4.90;99.90;;;;;;5011663;28;20129;-81
2021/04/05 02:01:22;;;;;;;18.60;2.58;;;4.90;99.90;;;;;;5013241;28;20037;-81
2021/04/05 02:03:47;;;;;;;21.45;3.10;;;4.90;99.90;;;;;;5012821;28;20367;-81
2021/04/05 02:06:16;;;;;;;13.52;2.35;;;4.80;99.90;;;;;;5011858;28;20025;-82
2021/04/05 02:08:44;;;;;;;14.38;2.20;;;4.90;99.90;;;;;;5012731;28;20072;-81
2021/04/05 02:11:15;;;;;;;8.82;2.08;;;4.80;99.90;;;;;;5012074;28;20053;-82
2021/04/05 02:13:44;;;;;;;6.00;0.98;;;4.50;99.90;;;;;;5012490;28;20033;-81
2021/04/05 02:16:13;;;;;;;5.70;1.25;;;4.30;99.90;;;;;;5012882;28;20501;-81
2021/04/05 02:18:39;;;;;;;6.88;1.25;;;4.10;99.90;;;;;;5011689;28;20022;-81
2021/04/05 02:21:09;;;;;;;6.80;0.90;;;4.00;99.90;;;;;;5012960;28;20026;-81
2021/04/05 02:23:35;;;;;;;5.63;1.02;;;3.90;99.90;;;;;;5011746;28;20033;-82
2021/04/05 02:26:21;;;;;;;7.45;0.82;;;3.90;99.90;;;;;;5012228;28;20037;-81
2021/04/05 02:28:55;;;;;;;5.18;1.52;;;3.90;99.90;;;;;;4993049;28;20038;-81
2021/04/05 02:31:23;;;;;;;10.27;1.52;;;3.90;99.90;;;;;;5010946;28;20034;-81
2021/04/05 02:33:55;;;;;;;18.30;2.22;;;3.90;99.90;;;;;;5010993;28;20457;-82
2021/04/05 02:36:32;;;;;;;11.68;1.73;;;3.90;99.90;;;;;;5010737;28;20037;-82
2021/04/05 02:39:00;;;;;;;7.75;1.60;;;3.90;99.90;;;;;;5011360;28;20117;-82
2021/04/05 02:41:28;;;;;;;10.80;2.10;;;4.00;99.90;;;;;;5012646;28;20421;-82
2021/04/05 02:43:54;;;;;;;10.85;1.55;;;4.00;99.90;;;;;;5011834;28;20467;-82
2021/04/05 02:46:24;;;;;;;11.90;1.88;;;4.00;99.90;;;;;;5012332;28;20033;-82
2021/04/05 02:48:52;;;;;;;16.05;3.90;;;3.90;99.90;;;;;;5012413;28;20070;-82
2021/04/05 02:51:18;;;;;;;11.68;2.95;;;3.80;99.90;;;;;;5011506;28;20479;-81
2021/04/05 02:53:50;;;;;;;16.65;2.10;;;3.60;99.90;;;;;;5011173;28;20399;-82
2021/04/05 02:56:16;;;;;;;22.65;3.20;;;3.40;99.90;;;;;;5010547;28;20514;-81
2021/04/05 02:58:46;;;;;;;33.03;3.63;;;3.30;99.90;;;;;;5012369;28;20022;-81
2021/04/05 03:01:12;;;;;;;33.83;3.03;;;3.30;99.90;;;;;;5010391;28;20406;-81
2021/04/05 03:03:39;;;;;;;37.05;4.10;;;3.20;99.90;;;;;;5011935;28;20026;-81
2021/04/05 03:06:06;;;;;;;46.58;4.55;;;3.20;99.90;;;;;;5010622;28;20549;-81
2021/04/05 03:08:32;;;;;;;36.10;3.55;;;3.10;99.90;;;;;;5012171;28;20029;-80
2021/04/05 03:10:58;;;;;;;36.03;4.40;;;3.10;99.90;;;;;;5012269;28;20026;-80
2021/04/05 03:13:25;;;;;;;47.40;4.90;;;3.10;99.90;;;;;;5012131;28;20030;-80
2021/04/05 03:15:52;;;;;;;41.20;4.05;;;3.10;99.90;;;;;;5011261;28;20041;-80
2021/04/05 03:18:20;;;;;;;42.88;5.18;;;3.10;99.90;;;;;;5012052;28;20097;-81
2021/04/05 03:20:47;;;;;;;23.92;3.75;;;3.00;99.90;;;;;;5010563;28;20424;-80
2021/04/05 03:23:15;;;;;;;23.42;3.75;;;3.00;99.90;;;;;;5010731;28;20056;-81
2021/04/05 03:25:41;;;;;;;26.75;3.72;;;3.00;99.90;;;;;;5009895;28;20556;-81
2021/04/05 03:28:06;;;;;;;39.45;3.97;;;3.00;99.90;;;;;;5011549;28;20038;-80
2021/04/05 03:30:42;;;;;;;26.35;3.83;;;3.00;99.90;;;;;;5011692;28;20447;-80
2021/04/05 03:33:25;;;;;;;37.92;4.30;;;3.00;99.90;;;;;;5010683;28;20390;-80
2021/04/05 03:35:57;;;;;;;25.27;4.43;;;3.00;99.90;;;;;;5011075;28;20041;-80
2021/04/05 03:38:23;;;;;;;22.45;3.70;;;3.00;99.90;;;;;;5010559;28;20099;-80
2021/04/05 03:40:49;;;;;;;14.52;2.78;;;3.00;99.90;;;;;;5012008;28;20486;-80
2021/04/05 03:43:37;;;;;;;16.40;2.15;;;2.90;99.90;;;;;;5010535;28;20026;-81
2021/04/05 03:46:07;;;;;;;12.30;1.67;;;2.90;99.90;;;;;;5010777;28;20087;-81
2021/04/05 03:48:35;;;;;;;12.63;1.60;;;2.80;99.90;;;;;;5010119;28;20080;-80
2021/04/05 03:51:22;;;;;;;7.82;1.60;;;2.70;99.90;;;;;;5011760;28;20026;-81
2021/04/05 03:53:57;;;;;;;9.55;2.08;;;2.90;99.90;;;;;;5011111;28;20132;-80
2021/04/05 03:56:30;;;;;;;17.00;2.80;;;2.70;99.90;;;;;;5011379;28;20544;-80
2021/04/05 03:59:02;;;;;;;19.77;2.03;;;2.80;99.90;;;;;;5011598;28;20026;-80
2021/04/05 04:01:29;;;;;;;18.20;2.17;;;2.90;99.90;;;;;;5011650;28;20029;-80
2021/04/05 04:04:20;;;;;;;15.95;2.13;;;3.00;99.90;;;;;;5011026;28;20833;-80
2021/04/05 04:06:54;;;;;;;22.42;2.25;;;3.00;99.90;;;;;;5010999;28;20030;-80
2021/04/05 04:09:23;;;;;;;11.27;1.90;;;3.00;99.90;;;;;;5011560;28;20014;-80
2021/04/05 04:11:51;;;;;;;19.08;1.80;;;3.20;99.90;;;;;;5011461;28;20127;-80
2021/04/05 04:14:18;;;;;;;16.98;1.95;;;3.20;99.90;;;;;;5013624;28;20022;-80
2021/04/05 04:16:48;;;;;;;17.42;2.28;;;3.30;99.90;;;;;;5014191;28;20041;-80
2021/04/05 04:19:16;;;;;;;13.20;2.30;;;3.20;99.90;;;;;;5014041;28;20032;-80
2021/04/05 04:21:44;;;;;;;7.80;1.90;;;3.20;99.90;;;;;;5014073;28;20026;-80
2021/04/05 04:24:10;;;;;;;14.93;2.30;;;3.20;99.90;;;;;;5014608;28;20040;-80
2021/04/05 04:26:36;;;;;;;35.10;3.63;;;3.20;99.90;;;;;;5014092;28;20061;-80
2021/04/05 04:29:11;;;;;;;26.92;3.22;;;3.20;99.90;;;;;;5013587;28;20036;-81
2021/04/05 04:31:38;;;;;;;28.25;4.90;;;3.30;99.90;;;;;;4995558;28;20037;-81
2021/04/05 04:34:03;;;;;;;19.05;3.35;;;3.30;99.90;;;;;;5009876;28;20023;-81
2021/04/05 04:36:29;;;;;;;25.42;3.70;;;3.30;99.90;;;;;;5009650;28;20030;-81
2021/04/05 04:38:56;;;;;;;23.20;3.60;;;3.30;99.90;;;;;;5013799;28;20117;-80
2021/04/05 04:41:30;;;;;;;27.92;3.67;;;3.30;99.90;;;;;;5014954;28;20032;-80
2021/04/05 04:44:02;;;;;;;32.85;4.22;;;3.30;99.90;;;;;;5013082;28;20887;-81
2021/04/05 04:46:28;;;;;;;29.23;3.35;;;3.30;99.90;;;;;;5014725;28;20030;-81
2021/04/05 04:49:02;;;;;;;35.97;4.97;;;3.30;99.90;;;;;;5013367;28;20120;-81
2021/04/05 04:51:29;;;;;;;28.77;6.03;;;3.30;99.90;;;;;;5013825;28;20133;-81
2021/04/05 04:54:00;;;;;;;29.35;5.20;;;3.30;99.90;;;;;;5014128;28;20096;-80
2021/04/05 04:56:27;;;;;;;16.67;2.25;;;3.30;99.90;;;;;;5013204;28;20030;-80
2021/04/05 04:59:02;;;;;;;15.23;2.70;;;3.30;99.90;;;;;;5013291;28;20100;-80
2021/04/05 05:01:30;;;;;;;20.05;2.28;;;3.10;99.90;;;;;;5014686;28;20026;-81
2021/04/05 05:04:01;;;;;;;21.83;2.83;;;2.80;99.90;;;;;;5012938;28;20026;-81
2021/04/05 05:06:28;;;;;;;17.00;2.10;;;2.60;99.90;;;;;;5014305;28;20026;-80
2021/04/05 05:08:54;;;;;;;19.42;2.33;;;2.40;99.90;;;;;;5014437;28;20025;-80
2021/04/05 05:11:20;;;;;;;12.70;1.85;;;2.30;99.90;;;;;;5014307;28;20052;-80
2021/04/05 05:13:46;;;;;;;28.58;2.78;;;2.20;99.90;;;;;;5013613;28;20478;-81
2021/04/05 05:16:11;;;;;;;16.00;2.30;;;2.10;99.90;;;;;;5012993;28;20029;-80
2021/04/05 05:18:38;;;;;;;17.08;2.20;;;2.00;99.90;;;;;;5012966;28;20030;-80
2021/04/05 05:21:08;;;;;;;13.52;2.15;;;2.00;99.90;;;;;;5012924;28;20025;-80
2021/04/05 05:23:38;;;;;;;14.68;2.75;;;1.90;99.90;;;;;;5014106;28;20025;-80
2021/04/05 05:26:04;;;;;;;23.02;2.33;;;2.00;99.90;;;;;;5012322;28;20030;-80
2021/04/05 05:28:33;;;;;;;15.63;2.08;;;2.10;99.90;;;;;;5013766;28;20120;-80
2021/04/05 05:30:59;;;;;;;32.33;3.25;;;2.20;99.90;;;;;;5013886;28;20046;-80
2021/04/05 05:33:25;;;;;;;22.73;2.55;;;2.50;99.90;;;;;;5012673;28;20045;-80
2021/04/05 05:35:52;;;;;;;22.75;2.70;;;2.70;99.90;;;;;;5012754;28;20483;-80
2021/04/05 05:38:22;;;;;;;21.05;2.05;;;2.30;99.90;;;;;;5013778;28;20026;-81
2021/04/05 05:40:48;;;;;;;7.75;1.65;;;1.80;99.90;;;;;;5012836;28;20114;-80
2021/04/05 05:43:26;;;;;;;15.35;2.25;;;1.70;99.90;;;;;;5012662;28;20029;-80
2021/04/05 05:46:31;;;;;;;13.02;1.55;;;1.60;99.90;;;;;;5011249;28;20030;-81
2021/04/05 05:49:07;;;;;;;19.40;1.73;;;1.70;99.90;;;;;;5009979;28;20056;-81
2021/04/05 05:51:57;;;;;;;25.63;2.58;;;1.80;99.90;;;;;;5013608;28;20478;-80
2021/04/05 05:54:33;;;;;;;19.50;2.50;;;1.80;99.90;;;;;;5012853;28;20048;-81
2021/04/05 05:57:04;;;;;;;12.18;1.60;;;1.90;99.90;;;;;;4994053;28;20479;-82
2021/04/05 05:59:57;;;;;;;5.50;0.55;;;2.00;99.90;;;;;;4997153;28;20113;-81
2021/04/05 06:02:53;;;;;;;9.38;1.33;;;2.10;99.90;;;;;;5012226;28;20022;-81
2021/04/05 06:05:37;;;;;;;5.38;0.95;;;1.90;99.90;;;;;;5012402;28;20046;-82
2021/04/05 06:08:39;;;;;;;3.55;0.63;;;1.50;99.90;;;;;;5012016;28;20030;-80
2021/04/05 06:11:20;;;;;;;3.15;0.30;;;1.20;99.90;;;;;;5013375;28;20108;-81
2021/04/05 06:13:54;;;;;;;4.38;0.85;;;0.90;99.90;;;;;;5012217;28;20030;-81
2021/04/05 06:16:36;;;;;;;1.20;0.40;;;0.90;99.90;;;;;;5012913;28;20036;-82
2021/04/05 06:19:20;;;;;;;1.00;0.43;;;0.80;99.90;;;;;;5013136;28;20534;-82
2021/04/05 06:21:57;;;;;;;2.60;0.60;;;0.70;99.90;;;;;;5013149;28;20091;-80
2021/04/05 06:24:38;;;;;;;0.70;0.40;;;0.70;99.90;;;;;;5010071;28;20124;-80
2021/04/05 06:27:14;;;;;;;3.05;0.47;;;0.60;99.90;;;;;;5013135;28;20022;-80
2021/04/05 06:30:17;;;;;;;6.28;0.57;;;0.60;99.90;;;;;;5011332;28;20113;-79
2021/04/05 06:32:57;;;;;;;14.23;0.98;;;0.50;99.90;;;;;;5012719;28;20026;-80
2021/04/05 06:36:00;;;;;;;3.45;0.70;;;0.40;99.90;;;;;;5011880;28;20018;-80
2021/04/05 06:38:31;;;;;;;6.53;0.45;;;0.30;99.90;;;;;;5012321;28;20030;-81
2021/04/05 06:41:09;;;;;;;0.95;0.50;;;0.30;99.90;;;;;;5012747;28;20022;-81
2021/04/05 06:44:14;;;;;;;3.78;0.70;;;0.30;99.90;;;;;;5011513;28;20036;-82
2021/04/05 06:46:56;;;;;;;7.97;1.42;;;0.40;99.90;;;;;;4991836;28;20030;-81
2021/04/05 06:49:39;;;;;;;19.38;2.90;;;0.30;99.90;;;;;;4991523;28;20034;-79
2021/04/05 06:52:38;;;;;;;8.18;1.35;;;0.00;99.90;;;;;;5008053;28;20030;-80
2021/04/05 06:55:04;;;;;;;10.38;1.95;;;-0.20;99.90;;;;;;4996217;28;20088;-79
2021/04/05 06:57:54;;;;;;;15.63;2.25;;;-0.40;99.90;;;;;;5012547;28;20030;-81
2021/04/05 07:00:31;;;;;;;10.68;1.48;;;-0.40;99.90;;;;;;5010920;28;20033;-81
2021/04/05 07:03:26;;;;;;;20.33;2.38;;;-0.50;99.90;;;;;;5006818;28;20026;-80
2021/04/05 07:06:30;;;;;;;22.75;2.10;;;-0.60;99.90;;;;;;5009914;28;20477;-80
2021/04/05 07:09:03;;;;;;;9.43;2.25;;;-0.60;99.90;;;;;;5011565;28;20101;-82
2021/04/05 07:12:07;;;;;;;17.60;2.10;;;-0.70;99.90;;;;;;5012103;28;20509;-82
2021/04/05 07:14:57;;;;;;;18.98;2.53;;;-0.60;99.90;;;;;;5009818;28;20041;-83
2021/04/05 07:17:46;;;;;;;22.60;2.15;;;-0.70;99.90;;;;;;5011981;28;20490;-82
2021/04/05 07:20:18;;;;;;;24.30;4.57;;;-0.70;99.90;;;;;;5010772;28;20026;-79
2021/04/05 07:23:05;;;;;;;15.95;3.58;;;-0.50;99.90;;;;;;5010598;28;20026;-83
2021/04/05 07:25:53;;;;;;;21.75;3.05;;;-0.40;99.90;;;;;;5009401;28;20490;-85
2021/04/05 07:28:30;;;;;;;20.38;2.35;;;-0.30;99.90;;;;;;5012022;28;20434;-85
2021/04/05 07:31:21;;;;;;;13.40;2.60;;;-0.20;99.90;;;;;;5011578;28;20057;-86
2021/04/05 07:33:50;;;;;;;27.60;2.55;;;0.00;99.90;;;;;;5010368;28;20032;-87
2021/04/05 07:36:38;;;;;;;15.65;2.53;;;0.10;99.90;;;;;;5011940;28;20034;-87
2021/04/05 07:39:26;;;;;;;21.63;3.45;;;0.30;99.90;;;;;;5010694;28;20025;-86
2021/04/05 07:42:00;;;;;;;13.32;2.03;;;0.40;99.90;;;;;;5010872;28;20026;-86
2021/04/05 07:44:50;;;;;;;32.50;3.05;;;0.70;99.90;;;;;;5009877;28;20048;-86
2021/04/05 07:47:42;;;;;;;15.27;2.25;;;0.70;99.90;;;;;;5010291;28;20054;-86
2021/04/05 07:50:35;;;;;;;19.77;2.92;;;0.90;99.90;;;;;;5011964;28;20087;-85
2021/04/05 07:53:25;;;;;;;25.15;2.65;;;1.10;99.90;;;;;;5011651;28;20038;-86
2021/04/05 07:55:54;;;;;;;19.73;3.47;;;1.40;99.90;;;;;;5008072;28;20034;-85
2021/04/05 07:58:31;;;;;;;24.38;2.92;;;1.70;99.90;;;;;;5023767;28;20038;-85
2021/04/05 08:01:08;;;;;;;18.10;2.58;;;1.80;99.90;;;;;;5003104;28;20026;-85
2021/04/05 08:03:45;;;;;;;33.67;3.22;;;2.00;99.90;;;;;;5007247;28;20121;-84
2021/04/05 08:06:14;;;;;;;18.98;3.92;;;2.20;99.90;;;;;;5005792;28;20050;-85
2021/04/05 08:08:51;;;;;;;30.45;3.65;;;2.40;99.90;;;;;;5008681;28;20037;-85
2021/04/05 08:11:45;;;;;;;19.40;2.97;;;2.60;99.90;;;;;;5010296;28;20030;-84
2021/04/05 08:14:34;;;;;;;32.13;3.45;;;2.60;99.90;;;;;;5009324;28;20428;-80
2021/04/05 08:17:09;;;;;;;26.95;4.55;;;2.50;99.90;;;;;;5011412;28;20042;-80
2021/04/05 08:19:45;;;;;;;20.75;3.65;;;2.20;99.90;;;;;;5011302;28;20073;-79
2021/04/05 08:22:11;;;;;;;16.05;2.35;;;2.20;99.90;;;;;;5011424;28;20022;-80
2021/04/05 08:25:04;;;;;;;15.77;2.08;;;2.10;99.90;;;;;;5009055;28;20080;-79
2021/04/05 08:27:48;;;;;;;14.52;2.97;;;1.90;99.90;;;;;;5010117;28;20592;-79
2021/04/05 08:30:23;;;;;;;8.13;1.77;;;1.90;99.90;;;;;;5011057;28;20045;-80
2021/04/05 08:33:09;;;;;;;21.25;2.75;;;2.10;99.90;;;;;;5010177;28;20111;-80
2021/04/05 08:35:44;;;;;;;37.75;4.00;;;2.40;99.90;;;;;;5008762;28;20018;-80
2021/04/05 08:38:25;;;;;;;30.23;3.97;;;2.60;99.90;;;;;;5011018;28;20433;-80
2021/04/05 08:41:27;;;;;;;14.02;2.63;;;2.70;99.90;;;;;;5009912;28;20018;-79
2021/04/05 08:44:06;;;;;;;16.00;2.72;;;2.80;99.90;;;;;;5007892;28;20084;-79
2021/04/05 08:46:35;;;;;;;17.48;2.10;;;2.60;99.90;;;;;;5010355;28;20025;-82
2021/04/05 08:49:04;;;;;;;13.40;2.08;;;2.60;99.90;;;;;;5009444;28;20041;-81
2021/04/05 08:51:34;;;;;;;11.63;2.65;;;2.80;99.90;;;;;;5009384;28;20037;-80
2021/04/05 08:54:03;;;;;;;17.60;2.45;;;3.00;99.90;;;;;;5009212;28;20034;-80
2021/04/05 08:56:43;;;;;;;21.98;2.40;;;3.10;99.90;;;;;;5010754;28;20037;-79
2021/04/05 08:59:17;;;;;;;19.95;2.92;;;3.30;99.90;;;;;;5009686;28;20029;-79
2021/04/05 09:01:47;;;;;;;17.77;2.25;;;3.30;99.90;;;;;;5013210;28;20022;-79
2021/04/05 09:04:15;;;;;;;16.73;2.78;;;3.20;99.90;;;;;;5013057;28;20060;-79
2021/04/05 09:07:07;;;;;;;10.73;2.08;;;3.40;99.90;;;;;;5013325;28;20121;-80
2021/04/05 09:09:35;;;;;;;14.50;2.45;;;3.50;99.90;;;;;;5014374;28;20025;-80
2021/04/05 09:12:04;;;;;;;22.02;4.18;;;3.50;99.90;;;;;;5012947;28;20076;-82
2021/04/05 09:14:38;;;;;;;19.85;2.17;;;2.70;99.90;;;;;;5013335;28;20549;-81
2021/04/05 09:17:06;;;;;;;25.65;2.63;;;2.40;99.90;;;;;;5013418;28;20088;-80
2021/04/05 09:19:35;;;;;;;10.55;2.08;;;2.70;99.90;;;;;;5012450;28;20032;-84
2021/04/05 09:22:35;;;;;;;6.45;1.33;;;3.00;99.90;;;;;;5013075;28;20041;-80
2021/04/05 09:25:17;;;;;;;8.38;1.23;;;3.30;99.90;;;;;;5013190;28;20506;-80
2021/04/05 09:28:20;;;;;;;6.93;1.45;;;3.70;99.90;;;;;;5013775;28;20037;-81
2021/04/05 09:30:54;;;;;;;13.50;1.33;;;3.90;99.90;;;;;;5014071;28;20026;-80
2021/04/05 09:33:38;;;;;;;6.80;1.23;;;3.80;99.90;;;;;;5013549;28;20221;-80
2021/04/05 09:36:07;;;;;;;;;;;3.90;99.90;;;;;;5012835;28;20022;-81
2021/04/05 09:38:44;;;;;;;16.67;2.40;;;4.00;99.90;;;;;;5013942;28;19988;-81
2021/04/05 09:41:31;;;;;;;18.98;2.70;;;4.20;99.90;;;;;;5013927;28;20029;-80
2021/04/05 09:44:24;;;;;;;21.08;2.92;;;4.00;99.90;;;;;;5012868;28;20038;-80
2021/04/05 09:47:28;;;;;;;37.88;2.97;;;3.00;99.90;;;;;;5012187;28;20034;-79
2021/04/05 09:50:23;;;;;;;12.70;2.03;;;2.70;99.90;;;;;;5012077;28;20041;-80
2021/04/05 09:52:48;;;;;;;;;;;2.80;99.90;;;;;;5012618;28;20470;-80
2021/04/05 09:55:15;;;;;;;11.55;2.03;;;2.80;99.90;;;;;;5010671;28;19910;-79
2021/04/05 09:57:51;;;;;;;21.10;3.75;;;2.70;99.90;;;;;;5013150;28;20465;-79
2021/04/05 10:00:19;;;;;;;13.05;1.90;;;2.50;99.90;;;;;;5013409;28;20029;-79
2021/04/05 10:02:55;;;;;;;5.90;0.73;;;2.00;99.90;;;;;;5012011;28;20112;-79
2021/04/05 10:05:21;;;;;;;6.70;1.00;;;1.20;99.90;;;;;;5011750;28;20038;-79
2021/04/05 10:07:50;;;;;;;5.13;1.15;;;0.50;99.90;;;;;;5008217;28;20045;-79
2021/04/05 10:10:17;;;;;;;14.50;1.80;;;0.20;99.90;;;;;;5007463;28;20022;-78
2021/04/05 10:12:46;;;;;;;9.80;0.98;;;0.10;99.90;;;;;;5007805;28;20029;-82
2021/04/05 10:15:16;;;;;;;11.73;1.73;;;0.00;99.90;;;;;;5007728;28;20494;-77
2021/04/05 10:17:59;;;;;;;15.48;1.83;;;0.20;99.90;;;;;;5006229;28;20508;-79
2021/04/05 10:20:28;;;;;;;16.13;1.73;;;0.70;99.90;;;;;;4999508;28;20029;-79
2021/04/05 10:22:55;;;;;;;18.42;2.30;;;1.20;99.90;;;;;;5008452;28;20108;-78
2021/04/05 10:25:24;;;;;;;18.92;1.63;;;1.40;99.90;;;;;;5008097;28;20053;-78
2021/04/05 10:27:58;;;;;;;16.52;2.08;;;1.50;99.90;;;;;;5007407;28;20026;-78
2021/04/05 10:30:31;;;;;;;;;;;1.60;99.90;;;;;;5009110;28;20045;-76
2021/04/05 10:33:04;;;;;;;7.55;1.20;;;1.40;99.90;;;;;;5008417;28;19956;-78
2021/04/05 10:35:33;;;;;;;5.03;1.25;;;1.20;99.90;;;;;;5007669;28;20033;-77
2021/04/05 10:38:02;;;;;;;8.98;1.73;;;1.20;99.90;;;;;;5008081;28;20038;-78
2021/04/05 10:40:28;;;;;;;10.45;1.30;;;1.20;99.90;;;;;;5008520;28;20461;-78
2021/04/05 10:42:58;;;;;;;19.70;1.25;;;1.10;99.90;;;;;;5007498;28;20057;-79
2021/04/05 10:45:34;;;;;;;17.00;2.20;;;1.10;99.90;;;;;;5007474;28;20120;-78
2021/04/05 10:48:20;;;;;;;20.98;2.83;;;1.00;99.90;;;;;;5006687;28;20491;-77
2021/04/05 10:50:56;;;;;;;23.48;2.95;;;1.10;99.90;;;;;;5007245;28;20042;-79
2021/04/05 10:53:23;;;;;;;18.80;2.63;;;1.20;99.90;;;;;;5008045;28;20037;-77
2021/04/05 10:56:11;;;;;;;10.45;3.13;;;1.20;99.90;;;;;;5007338;28;20113;-77
2021/04/05 10:58:56;;;;;;;6.05;1.67;;;0.80;99.90;;;;;;5005583;28;20032;-78
2021/04/05 11:01:24;;;;;;;7.57;1.23;;;0.50;99.90;;;;;;5002035;28;20136;-77
2021/04/05 11:03:51;;;;;;;15.73;1.75;;;0.50;99.90;;;;;;5007413;28;20054;-76
2021/04/05 11:06:19;;;;;;;15.82;1.17;;;0.40;99.90;;;;;;5007533;28;20096;-80
2021/04/05 11:08:48;;;;;;;12.77;1.63;;;0.50;99.90;;;;;;5007829;28;20076;-79
2021/04/05 11:11:17;;;;;;;8.05;1.45;;;0.70;99.90;;;;;;5006438;28;20044;-79
2021/04/05 11:13:47;;;;;;;13.23;2.80;;;0.90;99.90;;;;;;5005907;28;20025;-79
2021/04/05 11:16:15;;;;;;;11.63;1.65;;;1.30;99.90;;;;;;5006611;28;20034;-80
2021/04/05 11:18:50;;;;;;;10.68;2.97;;;1.90;99.90;;;;;;5006424;28;20030;-79
2021/04/05 11:21:18;;;;;;;11.05;2.50;;;2.40;99.90;;;;;;5006627;28;20049;-79
2021/04/05 11:23:48;;;;;;;15.40;2.53;;;2.80;99.90;;;;;;5004672;28;20049;-80
2021/04/05 11:26:14;;;;;;;11.77;2.28;;;3.10;99.90;;;;;;5002897;28;20030;-80
2021/04/05 11:28:41;;;;;;;10.13;1.80;;;3.50;99.90;;;;;;5005042;28;20244;-80
2021/04/05 11:31:16;;;;;;;20.58;5.57;;;3.60;99.90;;;;;;5006092;28;20117;-80
2021/04/05 11:34:02;;;;;;;17.50;2.38;;;3.50;99.90;;;;;;5005704;28;20034;-79
2021/04/05 11:36:55;;;;;;;25.95;3.22;;;3.30;99.90;;;;;;5005659;28;20038;-79
2021/04/05 11:39:27;;;;;;;30.63;6.25;;;3.30;99.90;;;;;;4997849;28;20040;-79
2021/04/05 11:41:55;;;;;;;26.77;4.30;;;3.70;99.90;;;;;;5005675;28;20398;-80
2021/04/05 11:44:23;;;;;;;38.65;4.55;;;3.70;99.90;;;;;;5005504;28;20026;-80
2021/04/05 11:46:52;;;;;;;24.08;4.72;;;3.60;99.90;;;;;;5007418;28;20501;-78
2021/04/05 11:49:18;;;;;;;20.05;3.10;;;2.90;99.90;;;;;;5005582;28;20525;-79
2021/04/05 11:52:15;;;;;;;27.33;4.38;;;2.40;99.90;;;;;;5006489;28;20094;-79
2021/04/05 11:54:52;;;;;;;22.60;1.60;;;2.20;99.90;;;;;;5005720;28;20026;-79
2021/04/05 11:57:30;;;;;;;6.13;1.55;;;1.20;99.90;;;;;;5005627;28;20069;-77
2021/04/05 12:00:05;;;;;;;8.80;1.65;;;0.50;99.90;;;;;;5006930;28;20034;-79
2021/04/05 12:02:35;;;;;;;9.98;1.77;;;0.10;99.90;;;;;;5006117;28;20088;-79
2021/04/05 12:05:06;;;;;;;8.43;1.67;;;0.00;99.90;;;;;;5007171;28;20033;-80
2021/04/05 12:07:35;;;;;;;20.08;1.40;;;0.00;99.90;;;;;;4996855;28;20545;-79
2021/04/05 12:10:06;;;;;;;6.65;0.88;;;0.10;99.90;;;;;;5007401;28;20094;-79
2021/04/05 12:12:41;;;;;;;4.82;1.77;;;0.10;99.90;;;;;;5006964;28;20064;-79
2021/04/05 12:15:16;;;;;;;7.07;1.52;;;0.10;99.90;;;;;;5008454;28;20033;-80
2021/04/05 12:17:47;;;;;;;7.53;2.10;;;0.10;99.90;;;;;;5010783;28;20060;-79
2021/04/05 12:20:14;;;;;;;4.05;0.90;;;0.20;99.90;;;;;;5010292;28;20089;-80
2021/04/05 12:22:40;;;;;;;10.85;2.35;;;0.20;99.90;;;;;;5011398;28;20482;-80
2021/04/05 12:25:08;;;;;;;9.82;2.10;;;0.30;99.90;;;;;;5009567;28;20398;-80
2021/04/05 12:27:37;;;;;;;13.55;2.35;;;0.30;99.90;;;;;;5011054;28;20029;-79
2021/04/05 12:30:09;;;;;;;3.10;0.90;;;0.30;99.90;;;;;;5011305;28;20406;-79
2021/04/05 12:32:37;;;;;;;14.85;2.00;;;0.50;99.90;;;;;;5011374;28;20104;-80
2021/04/05 12:35:05;;;;;;;34.33;4.18;;;0.80;99.90;;;;;;5013247;28;20072;-79
2021/04/05 12:37:32;;;;;;;25.95;3.03;;;1.50;99.90;;;;;;5014764;28;20064;-80
2021/04/05 12:40:00;;;;;;;30.35;5.55;;;2.30;99.90;;;;;;5013610;28;20033;-79
2021/04/05 12:42:36;;;;;;;40.78;4.28;;;3.10;99.90;;;;;;5013402;28;20033;-81
2021/04/05 12:45:04;;;;;;;61.40;15.27;;;3.80;99.90;;;;;;5014263;28;20105;-80
2021/04/05 12:47:39;;;;;;;32.47;4.30;;;4.00;99.90;;;;;;5013121;28;20017;-79
2021/04/05 12:50:13;;;;;;;38.28;5.35;;;3.70;99.90;;;;;;5013431;28;20552;-80
2021/04/05 12:52:41;;;;;;;19.63;4.07;;;3.80;99.90;;;;;;5013496;28;20030;-80
2021/04/05 12:55:12;;;;;;;23.23;3.65;;;4.60;99.90;;;;;;5014148;28;20021;-79
2021/04/05 12:57:39;;;;;;;22.45;3.83;;;5.40;99.90;;;;;;5014268;28;20052;-79
2021/04/05 13:00:24;;;;;;;36.80;4.65;;;5.40;99.90;;;;;;5014152;28;20069;-80
2021/04/05 13:03:02;;;;;;;26.65;4.43;;;4.30;99.90;;;;;;5013533;28;20046;-79
2021/04/05 13:05:35;;;;;;;36.22;3.97;;;3.90;99.90;;;;;;5013838;28;20038;-79
2021/04/05 13:08:19;;;;;;;45.38;5.93;;;3.70;99.90;;;;;;5014114;28;20037;-79
2021/04/05 13:10:55;;;;;;;39.80;5.15;;;4.30;99.90;;;;;;5013049;28;20038;-78
2021/04/05 13:13:22;;;;;;;36.35;4.97;;;4.30;99.90;;;;;;5014069;28;20038;-79
2021/04/05 13:15:59;;;;;;;34.10;4.68;;;5.00;99.90;;;;;;5013762;28;20577;-79
2021/04/05 13:18:29;;;;;;;27.60;4.32;;;5.20;99.90;;;;;;5013985;28;20034;-77
2021/04/05 13:21:01;;;;;;;29.80;5.00;;;4.90;99.90;;;;;;5014236;28;20026;-78